Time;durP1;ratioP1;P1;durP2;ratioP2;P2;SDS_P1;SDS_P2;PMS_P1;PMS_P2;Temp;Humidity;BMP_temperature;BMP_pressure;BME280_temperature;BME280_humidity;BME280_pressure;Samples;Min_cycle;Max_cycle;Signal;HPM_P1;HPM_P2
2023/10/29 00:11:04;;;;;;;14.35;3.92;;;19.40;79.50;;;;;;6241306;22;20036;-77
2023/10/29 00:13:29;;;;;;;10.38;3.55;;;19.40;79.70;;;;;;6245066;23;20004;-78
2023/10/29 00:15:55;;;;;;;13.38;4.22;;;19.40;80.40;;;;;;6244354;23;20437;-78
2023/10/29 00:18:22;;;;;;;9.38;3.35;;;19.40;80.30;;;;;;6221695;23;20020;-78
2023/10/29 00:20:48;;;;;;;10.55;3.63;;;19.30;80.40;;;;;;6248690;23;20444;-78
2023/10/29 00:23:14;;;;;;;14.35;3.10;;;19.30;80.60;;;;;;6248216;23;20006;-78
2023/10/29 00:25:40;;;;;;;10.82;3.30;;;19.30;80.80;;;;;;6247367;23;20057;-78
2023/10/29 00:28:05;;;;;;;11.68;4.25;;;19.30;80.90;;;;;;6247827;23;20146;-78
2023/10/29 00:30:31;;;;;;;12.45;3.78;;;19.20;81.20;;;;;;6248299;23;20015;-80
2023/10/29 00:32:57;;;;;;;13.32;3.40;;;19.20;81.20;;;;;;6248042;23;20067;-78
2023/10/29 00:35:22;;;;;;;11.52;3.97;;;19.30;81.00;;;;;;6248084;23;20000;-79
2023/10/29 00:37:48;;;;;;;14.50;3.72;;;19.30;81.10;;;;;;6245936;23;20023;-79
2023/10/29 00:40:14;;;;;;;9.98;3.70;;;19.30;81.30;;;;;;6247612;23;20075;-77
2023/10/29 00:42:40;;;;;;;13.70;3.53;;;19.30;81.30;;;;;;6248318;23;20007;-77
2023/10/29 00:45:07;;;;;;;12.13;3.92;;;19.30;81.20;;;;;;6248212;23;20019;-78
2023/10/29 00:47:32;;;;;;;12.80;4.20;;;19.30;81.20;;;;;;6221606;23;20008;-79
2023/10/29 00:49:58;;;;;;;11.75;4.15;;;19.30;81.30;;;;;;6248272;23;20493;-79
2023/10/29 00:52:24;;;;;;;11.48;4.05;;;19.30;81.40;;;;;;6248473;23;20081;-78
2023/10/29 00:54:50;;;;;;;12.35;3.92;;;19.30;81.50;;;;;;6248476;23;20000;-79
2023/10/29 00:57:16;;;;;;;9.93;3.80;;;19.30;81.40;;;;;;6248809;23;20458;-80
2023/10/29 00:59:42;;;;;;;13.10;4.10;;;19.30;81.40;;;;;;6245925;23;20444;-79
2023/10/29 01:02:08;;;;;;;10.50;3.72;;;19.30;81.50;;;;;;6247928;23;20007;-79
2023/10/29 01:04:36;;;;;;;9.52;3.92;;;19.30;81.40;;;;;;6248040;23;20016;-79
2023/10/29 01:07:02;;;;;;;12.98;4.20;;;19.30;81.50;;;;;;6248097;23;19996;-79
2023/10/29 01:09:29;;;;;;;13.65;4.20;;;19.40;81.70;;;;;;6247846;23;20012;-79
2023/10/29 01:11:54;;;;;;;11.38;3.60;;;19.40;81.50;;;;;;6247788;23;20016;-79
2023/10/29 01:14:20;;;;;;;16.02;3.80;;;19.30;81.50;;;;;;6247986;23;20031;-76
2023/10/29 01:16:46;;;;;;;14.30;4.35;;;19.30;81.70;;;;;;6248281;23;20030;-79
2023/10/29 01:19:11;;;;;;;12.13;3.78;;;19.40;81.70;;;;;;6248331;23;20440;-78
2023/10/29 01:21:37;;;;;;;11.30;3.80;;;19.30;81.70;;;;;;6248301;23;20331;-77
2023/10/29 01:24:03;;;;;;;18.10;4.13;;;19.20;81.80;;;;;;6247985;23;20072;-78
2023/10/29 01:26:29;;;;;;;11.57;4.28;;;19.10;81.90;;;;;;6247510;23;20434;-77
2023/10/29 01:28:55;;;;;;;10.73;3.38;;;19.10;82.20;;;;;;6246887;23;20079;-78
2023/10/29 01:31:20;;;;;;;13.02;4.32;;;19.10;82.00;;;;;;6246371;23;20004;-79
2023/10/29 01:33:46;;;;;;;15.82;5.43;;;19.10;82.20;;;;;;6246814;23;19997;-78
2023/10/29 01:36:12;;;;;;;12.32;4.25;;;19.10;82.40;;;;;;6246336;23;20370;-79
2023/10/29 01:38:37;;;;;;;11.90;4.22;;;19.10;82.50;;;;;;6246423;23;20075;-78
2023/10/29 01:41:03;;;;;;;8.05;3.30;;;19.10;82.60;;;;;;6247042;23;20004;-78
2023/10/29 01:43:29;;;;;;;12.52;3.72;;;19.10;82.90;;;;;;6246810;23;20007;-78
2023/10/29 01:45:54;;;;;;;10.73;4.47;;;19.10;82.80;;;;;;6246409;23;20449;-79
2023/10/29 01:48:23;;;;;;;13.90;4.10;;;19.10;82.90;;;;;;6246505;23;19996;-78
2023/10/29 01:50:50;;;;;;;12.95;4.18;;;19.00;83.00;;;;;;6246794;23;20026;-78
2023/10/29 01:53:16;;;;;;;13.30;3.53;;;19.00;83.20;;;;;;6246371;23;20007;-77
2023/10/29 01:55:42;;;;;;;9.88;3.53;;;18.90;83.20;;;;;;6245865;23;20075;-78
2023/10/29 01:58:07;;;;;;;12.48;3.83;;;18.90;83.40;;;;;;6246256;23;20464;-78
2023/10/29 02:00:33;;;;;;;10.32;3.60;;;18.90;83.50;;;;;;6247331;23;20001;-80
2023/10/29 02:02:59;;;;;;;11.73;4.25;;;18.90;83.60;;;;;;6221900;23;20138;-78
2023/10/29 02:05:24;;;;;;;12.25;4.05;;;18.90;83.60;;;;;;6246065;23;20394;-80
2023/10/29 02:07:50;;;;;;;9.60;3.80;;;18.90;83.70;;;;;;6246164;23;20337;-79
2023/10/29 02:10:16;;;;;;;10.15;3.50;;;18.90;83.70;;;;;;6245686;23;20101;-78
2023/10/29 02:12:42;;;;;;;12.27;3.45;;;18.80;83.60;;;;;;6246109;23;20002;-80
2023/10/29 02:15:07;;;;;;;8.38;3.55;;;18.80;83.70;;;;;;6245576;23;20078;-79
2023/10/29 02:17:33;;;;;;;10.20;3.20;;;18.80;83.80;;;;;;6245975;23;20071;-79
2023/10/29 02:19:59;;;;;;;10.75;3.67;;;18.80;83.70;;;;;;6218830;23;20442;-80
2023/10/29 02:22:28;;;;;;;11.63;3.47;;;18.80;83.70;;;;;;6245567;23;20008;-79
2023/10/29 02:24:53;;;;;;;9.82;3.13;;;18.80;83.60;;;;;;6245442;23;20061;-78
2023/10/29 02:27:19;;;;;;;11.75;3.10;;;18.80;83.60;;;;;;6245706;23;20016;-79
2023/10/29 02:29:45;;;;;;;9.70;3.28;;;18.70;83.50;;;;;;6245157;23;20008;-77
2023/10/29 02:32:11;;;;;;;14.68;3.63;;;18.80;83.50;;;;;;6245587;23;19996;-78
2023/10/29 02:34:36;;;;;;;14.20;3.25;;;18.80;83.50;;;;;;6245606;23;20004;-79
2023/10/29 02:37:02;;;;;;;11.55;3.03;;;18.70;83.60;;;;;;6245646;23;20007;-79
2023/10/29 02:39:28;;;;;;;19.73;3.58;;;18.60;83.70;;;;;;6245762;23;20462;-78
2023/10/29 02:41:54;;;;;;;10.73;3.22;;;18.60;83.60;;;;;;6245305;23;20004;-81
2023/10/29 02:44:19;;;;;;;11.57;3.13;;;18.60;83.80;;;;;;6245547;23;20047;-80
2023/10/29 02:46:45;;;;;;;11.02;2.90;;;18.60;83.90;;;;;;6245693;23;20145;-78
2023/10/29 02:49:11;;;;;;;12.73;3.63;;;18.60;83.80;;;;;;6245297;23;20015;-78
2023/10/29 02:51:36;;;;;;;8.98;3.05;;;18.60;83.80;;;;;;6245514;23;20043;-79
2023/10/29 02:54:02;;;;;;;14.40;3.28;;;18.60;83.80;;;;;;6245046;23;20310;-78
2023/10/29 02:56:30;;;;;;;6.63;2.95;;;18.60;83.70;;;;;;6245284;23;20023;-79
2023/10/29 02:58:56;;;;;;;8.20;2.67;;;18.60;83.80;;;;;;6242926;23;20008;-79
2023/10/29 03:01:21;;;;;;;10.00;3.55;;;18.60;83.90;;;;;;6218200;23;20091;-77
2023/10/29 03:03:47;;;;;;;11.23;3.20;;;18.60;83.80;;;;;;6244552;23;20123;-79
2023/10/29 03:06:13;;;;;;;14.40;3.45;;;18.60;83.80;;;;;;6218268;23;20349;-79
2023/10/29 03:08:39;;;;;;;9.40;2.83;;;18.60;83.60;;;;;;6242792;23;20000;-79
2023/10/29 03:11:05;;;;;;;9.13;2.85;;;18.60;83.50;;;;;;6245210;23;20043;-79
2023/10/29 03:13:31;;;;;;;11.45;2.78;;;18.60;83.60;;;;;;6244941;23;20050;-79
2023/10/29 03:15:56;;;;;;;12.77;3.03;;;18.60;83.40;;;;;;6244859;23;20126;-79
2023/10/29 03:18:22;;;;;;;9.07;2.80;;;18.60;83.40;;;;;;6244994;23;20089;-78
2023/10/29 03:20:51;;;;;;;11.38;3.05;;;18.60;83.50;;;;;;6244887;23;20004;-78
2023/10/29 03:23:17;;;;;;;12.07;2.78;;;18.60;83.50;;;;;;6245167;23;20337;-77
2023/10/29 03:25:44;;;;;;;16.77;3.20;;;18.60;83.50;;;;;;6245405;23;20091;-78
2023/10/29 03:28:10;;;;;;;12.02;3.25;;;18.50;83.40;;;;;;6245310;23;20079;-78
2023/10/29 03:30:39;;;;;;;9.25;2.83;;;18.50;83.30;;;;;;6245102;23;20004;-79
2023/10/29 03:33:05;;;;;;;8.18;2.42;;;18.40;83.60;;;;;;6244781;23;20007;-78
2023/10/29 03:35:31;;;;;;;11.85;3.03;;;18.40;83.40;;;;;;6246048;23;20024;-80
2023/10/29 03:37:56;;;;;;;10.73;3.13;;;18.40;83.50;;;;;;6245790;23;20369;-78
2023/10/29 03:40:22;;;;;;;12.05;3.15;;;18.40;83.50;;;;;;6245148;23;20323;-77
2023/10/29 03:42:47;;;;;;;10.80;3.15;;;18.40;83.50;;;;;;6245399;23;20000;-78
2023/10/29 03:45:13;;;;;;;10.27;2.58;;;18.30;83.40;;;;;;6245314;23;20036;-78
2023/10/29 03:47:41;;;;;;;8.82;2.40;;;18.30;83.60;;;;;;6218416;23;20014;-78
2023/10/29 03:50:08;;;;;;;10.90;2.97;;;18.30;83.50;;;;;;6244981;23;20000;-78
2023/10/29 03:52:34;;;;;;;10.57;2.50;;;18.30;83.30;;;;;;6245017;23;19996;-78
2023/10/29 03:55:00;;;;;;;12.98;2.30;;;18.30;83.50;;;;;;6245233;23;20000;-78
2023/10/29 03:57:25;;;;;;;9.60;2.65;;;18.30;83.30;;;;;;6218162;23;20008;-77
2023/10/29 03:59:51;;;;;;;13.10;2.58;;;18.30;83.30;;;;;;6245135;23;20434;-79
2023/10/29 04:02:17;;;;;;;8.57;3.05;;;18.30;83.40;;;;;;6217986;23;20043;-79
2023/10/29 04:04:42;;;;;;;9.85;2.47;;;18.30;83.40;;;;;;6244572;23;20015;-78
2023/10/29 04:07:08;;;;;;;12.48;3.17;;;18.20;83.30;;;;;;6244910;23;20000;-78
2023/10/29 04:09:34;;;;;;;9.55;2.40;;;18.20;83.40;;;;;;6245154;23;20115;-79
2023/10/29 04:12:00;;;;;;;9.25;2.45;;;18.20;83.30;;;;;;6244321;23;20464;-78
2023/10/29 04:14:26;;;;;;;11.15;2.88;;;18.20;83.10;;;;;;6244858;23;20004;-78
2023/10/29 04:16:51;;;;;;;11.80;2.83;;;18.20;83.10;;;;;;6245105;23;20082;-79
2023/10/29 04:19:17;;;;;;;10.23;2.85;;;18.20;83.20;;;;;;6244819;23;20426;-78
2023/10/29 04:21:43;;;;;;;10.85;2.60;;;18.20;83.00;;;;;;6244997;23;20066;-79
2023/10/29 04:24:09;;;;;;;13.40;2.70;;;18.20;82.90;;;;;;6245245;23;20004;-78
2023/10/29 04:26:34;;;;;;;5.50;2.03;;;18.20;82.90;;;;;;6244891;23;20000;-80
2023/10/29 04:29:00;;;;;;;8.70;2.58;;;18.20;83.00;;;;;;6244821;23;20005;-78
2023/10/29 04:31:25;;;;;;;8.20;2.28;;;18.20;82.90;;;;;;6244900;23;20426;-79
2023/10/29 04:33:51;;;;;;;10.57;2.60;;;18.20;82.80;;;;;;6244484;23;20375;-77
2023/10/29 04:36:21;;;;;;;10.27;2.60;;;18.20;82.90;;;;;;6244707;23;20378;-79
2023/10/29 04:38:46;;;;;;;10.50;2.72;;;18.10;82.90;;;;;;6244892;23;20009;-78
2023/10/29 04:41:12;;;;;;;10.70;2.65;;;18.10;83.00;;;;;;6244771;23;20000;-79
2023/10/29 04:43:41;;;;;;;10.48;2.72;;;18.10;82.90;;;;;;6244401;23;20005;-80
2023/10/29 04:46:06;;;;;;;9.82;2.60;;;18.10;83.10;;;;;;6244816;23;20015;-79
2023/10/29 04:48:32;;;;;;;6.40;2.15;;;18.00;83.00;;;;;;6244708;23;20000;-78
2023/10/29 04:50:58;;;;;;;10.20;2.95;;;18.00;83.10;;;;;;6244641;23;20089;-79
2023/10/29 04:53:23;;;;;;;9.90;2.42;;;18.10;83.20;;;;;;6245536;23;20024;-79
2023/10/29 04:55:49;;;;;;;11.02;2.25;;;18.10;83.20;;;;;;6244615;23;20008;-79
2023/10/29 04:58:14;;;;;;;8.57;2.30;;;18.10;83.30;;;;;;6217661;23;20004;-79
2023/10/29 05:00:40;;;;;;;11.15;2.65;;;18.10;83.30;;;;;;6244568;23;20011;-79
2023/10/29 05:03:06;;;;;;;9.05;2.97;;;18.10;83.30;;;;;;6244783;23;20334;-80
2023/10/29 05:05:31;;;;;;;7.97;2.30;;;18.10;83.30;;;;;;6246559;23;20012;-79
2023/10/29 05:07:58;;;;;;;11.20;2.40;;;18.10;83.30;;;;;;6246939;23;20022;-79
2023/10/29 05:10:25;;;;;;;9.50;2.10;;;18.10;83.20;;;;;;6246661;23;20023;-79
2023/10/29 05:12:51;;;;;;;9.50;2.20;;;18.10;83.30;;;;;;6246990;23;20417;-78
2023/10/29 05:15:17;;;;;;;11.27;2.55;;;18.10;83.40;;;;;;6246485;23;20083;-79
2023/10/29 05:17:42;;;;;;;11.40;2.90;;;18.10;83.50;;;;;;6219422;23;20362;-78
2023/10/29 05:20:09;;;;;;;10.32;2.65;;;18.10;83.50;;;;;;6219876;23;20008;-79
2023/10/29 05:22:36;;;;;;;9.10;2.35;;;18.10;83.50;;;;;;6247106;23;20071;-78
2023/10/29 05:25:02;;;;;;;8.45;2.65;;;18.10;83.40;;;;;;6247261;23;20008;-79
2023/10/29 05:27:28;;;;;;;16.98;2.42;;;18.10;83.50;;;;;;6247325;23;20032;-80
2023/10/29 05:29:53;;;;;;;12.10;2.70;;;18.10;83.50;;;;;;6247006;23;20007;-79
2023/10/29 05:32:19;;;;;;;8.65;2.45;;;18.10;83.30;;;;;;6246920;23;20054;-78
2023/10/29 05:34:45;;;;;;;10.00;2.95;;;18.10;83.50;;;;;;6246699;23;20028;-79
2023/10/29 05:37:11;;;;;;;8.43;2.30;;;18.10;83.50;;;;;;6246183;23;20004;-79
2023/10/29 05:39:36;;;;;;;10.80;2.35;;;18.00;83.50;;;;;;6246412;23;20423;-79
2023/10/29 05:42:02;;;;;;;14.30;2.63;;;18.10;83.60;;;;;;6246437;23;20000;-79
2023/10/29 05:44:28;;;;;;;9.65;2.67;;;18.10;83.50;;;;;;6219310;23;20020;-80
2023/10/29 05:46:54;;;;;;;9.63;2.70;;;18.10;83.40;;;;;;6246322;23;20003;-79
2023/10/29 05:49:19;;;;;;;11.30;2.60;;;18.10;83.30;;;;;;6246837;23;20395;-79
2023/10/29 05:51:45;;;;;;;12.00;2.33;;;18.20;83.30;;;;;;6246531;23;20434;-80
2023/10/29 05:54:11;;;;;;;9.82;2.53;;;18.20;83.20;;;;;;6219687;23;20008;-80
2023/10/29 05:56:36;;;;;;;8.45;2.40;;;18.20;83.10;;;;;;6246579;23;20020;-80
2023/10/29 05:59:02;;;;;;;14.13;2.55;;;18.20;83.20;;;;;;6246003;23;20004;-80
2023/10/29 06:01:28;;;;;;;15.00;2.83;;;18.20;83.20;;;;;;6246103;23;20015;-80
2023/10/29 06:03:55;;;;;;;12.32;2.30;;;18.20;83.10;;;;;;6246353;23;20075;-79
2023/10/29 06:06:21;;;;;;;9.18;2.38;;;18.30;83.10;;;;;;6246416;23;20308;-81
2023/10/29 06:08:46;;;;;;;10.15;2.67;;;18.30;83.00;;;;;;6246195;23;20083;-80
2023/10/29 06:11:12;;;;;;;12.48;3.00;;;18.30;82.90;;;;;;6245964;23;20024;-80
2023/10/29 06:13:38;;;;;;;9.65;2.45;;;18.30;82.90;;;;;;6246109;23;20000;-79
2023/10/29 06:16:08;;;;;;;9.93;3.05;;;18.30;82.80;;;;;;6245725;23;20054;-80
2023/10/29 06:18:33;;;;;;;7.80;2.63;;;18.30;82.80;;;;;;6245860;23;20011;-78
2023/10/29 06:20:59;;;;;;;11.25;2.53;;;18.30;82.90;;;;;;6246210;23;20023;-80
2023/10/29 06:23:26;;;;;;;7.80;2.20;;;18.30;82.90;;;;;;6246165;23;20414;-79
2023/10/29 06:25:51;;;;;;;8.88;2.47;;;18.30;83.00;;;;;;6245852;23;20020;-80
2023/10/29 06:28:17;;;;;;;6.85;2.25;;;18.40;82.80;;;;;;6246117;23;20418;-79
2023/10/29 06:30:44;;;;;;;10.60;2.95;;;18.50;82.80;;;;;;6246042;23;20000;-79
2023/10/29 06:33:09;;;;;;;7.68;2.92;;;18.60;82.80;;;;;;6246174;23;20031;-81
2023/10/29 06:35:35;;;;;;;11.98;2.90;;;18.70;82.60;;;;;;6245909;23;20000;-80
2023/10/29 06:38:01;;;;;;;11.75;3.17;;;18.80;82.60;;;;;;6218432;23;20066;-80
2023/10/29 06:40:27;;;;;;;9.27;2.53;;;18.90;82.40;;;;;;6245368;23;20007;-78
2023/10/29 06:42:52;;;;;;;10.40;2.35;;;19.00;82.30;;;;;;6219301;23;20011;-79
2023/10/29 06:45:18;;;;;;;8.07;2.15;;;19.10;82.30;;;;;;6245321;23;20051;-81
2023/10/29 06:47:44;;;;;;;6.63;2.45;;;19.10;82.10;;;;;;6245549;23;20031;-81
2023/10/29 06:50:10;;;;;;;9.68;2.70;;;19.20;81.90;;;;;;6245392;23;20028;-79
2023/10/29 06:52:36;;;;;;;8.90;2.53;;;19.30;81.90;;;;;;6245337;23;19996;-78
2023/10/29 06:55:01;;;;;;;10.50;2.75;;;19.40;81.70;;;;;;6244872;23;20008;-81
2023/10/29 06:57:27;;;;;;;12.02;3.10;;;19.50;81.60;;;;;;6245100;23;20015;-80
2023/10/29 06:59:54;;;;;;;10.88;3.03;;;19.50;81.20;;;;;;6244850;23;20011;-81
2023/10/29 07:02:19;;;;;;;10.10;2.63;;;19.60;81.00;;;;;;6244719;23;20004;-80
2023/10/29 07:04:45;;;;;;;11.55;2.70;;;19.70;80.90;;;;;;6244531;23;20063;-80
2023/10/29 07:07:11;;;;;;;9.40;2.70;;;19.80;81.00;;;;;;6244916;23;20020;-81
2023/10/29 07:09:37;;;;;;;9.65;2.72;;;19.80;80.40;;;;;;6245099;23;20004;-79
2023/10/29 07:12:03;;;;;;;10.95;2.90;;;19.90;80.40;;;;;;6244632;23;20013;-79
2023/10/29 07:14:29;;;;;;;11.13;3.53;;;19.90;80.50;;;;;;6244144;23;20012;-81
2023/10/29 07:16:54;;;;;;;12.52;2.78;;;20.00;80.40;;;;;;6244718;23;20391;-81
2023/10/29 07:19:20;;;;;;;9.38;2.53;;;20.00;80.20;;;;;;6244669;23;20004;-80
2023/10/29 07:21:46;;;;;;;11.75;3.25;;;20.10;80.10;;;;;;6218459;23;20008;-81
2023/10/29 07:24:11;;;;;;;11.45;3.35;;;20.20;80.00;;;;;;6244756;23;20402;-80
2023/10/29 07:26:37;;;;;;;12.55;3.58;;;20.20;79.90;;;;;;6244723;23;20011;-82
2023/10/29 07:29:03;;;;;;;13.65;3.05;;;20.30;79.60;;;;;;6244624;23;20007;-79
2023/10/29 07:31:32;;;;;;;8.80;2.97;;;20.30;79.30;;;;;;6244604;23;20004;-81
2023/10/29 07:33:57;;;;;;;6.72;2.60;;;20.40;79.30;;;;;;6245289;23;20000;-80
2023/10/29 07:36:23;;;;;;;10.27;3.60;;;20.50;79.10;;;;;;6245359;23;20008;-80
2023/10/29 07:38:49;;;;;;;11.70;3.70;;;20.50;79.10;;;;;;6245520;23;20116;-81
2023/10/29 07:41:22;;;;;;;11.75;4.45;;;20.50;78.90;;;;;;6218051;23;20008;-81
2023/10/29 07:43:48;;;;;;;15.10;5.55;;;20.50;78.80;;;;;;6244932;23;20310;-80
2023/10/29 07:46:14;;;;;;;10.82;3.33;;;20.50;78.70;;;;;;6244877;23;20019;-79
2023/10/29 07:48:40;;;;;;;9.65;3.83;;;20.50;78.70;;;;;;6245190;23;20000;-78
2023/10/29 07:51:06;;;;;;;12.23;3.88;;;20.50;78.80;;;;;;6246126;23;20007;-82
2023/10/29 07:53:31;;;;;;;12.02;3.42;;;20.50;78.70;;;;;;6246446;23;20001;-78
2023/10/29 07:56:11;;;;;;;11.73;3.08;;;20.50;78.70;;;;;;6246622;23;20504;-80
2023/10/29 07:58:38;;;;;;;17.38;4.07;;;20.50;78.70;;;;;;6218216;23;20419;-81
2023/10/29 08:01:10;;;;;;;13.70;3.42;;;20.50;78.50;;;;;;6245200;23;20004;-79
2023/10/29 08:03:36;;;;;;;10.57;3.30;;;20.60;78.70;;;;;;6244981;23;20000;-80
2023/10/29 08:06:02;;;;;;;11.85;2.90;;;20.60;78.80;;;;;;6244625;23;20154;-83
2023/10/29 08:08:28;;;;;;;8.70;2.70;;;20.70;79.10;;;;;;6244497;23;20039;-76
2023/10/29 08:10:54;;;;;;;9.70;2.63;;;20.80;79.20;;;;;;6244872;23;20078;-76
2023/10/29 08:13:20;;;;;;;16.20;3.60;;;20.90;79.40;;;;;;6244526;23;20002;-71
2023/10/29 08:15:46;;;;;;;6.35;2.25;;;20.90;79.20;;;;;;6244179;23;20011;-75
2023/10/29 08:18:11;;;;;;;9.02;2.88;;;21.00;79.00;;;;;;6244324;23;20024;-75
2023/10/29 08:20:37;;;;;;;13.52;3.03;;;21.10;79.00;;;;;;6244354;23;20000;-76
2023/10/29 08:23:03;;;;;;;11.07;2.60;;;21.20;79.60;;;;;;6244454;23;20031;-73
2023/10/29 08:25:29;;;;;;;8.63;2.40;;;21.30;78.90;;;;;;6244308;23;20430;-73
2023/10/29 08:27:54;;;;;;;6.90;1.98;;;21.40;79.00;;;;;;6244241;23;19996;-73
2023/10/29 08:30:20;;;;;;;10.43;2.20;;;21.40;78.80;;;;;;6244386;23;20011;-74
2023/10/29 08:32:45;;;;;;;10.23;2.13;;;21.40;78.60;;;;;;6244693;23;20000;-84
2023/10/29 08:35:11;;;;;;;8.18;2.58;;;21.50;78.60;;;;;;6247078;23;20015;-83
2023/10/29 08:37:37;;;;;;;8.73;2.30;;;21.60;78.50;;;;;;6245305;23;20494;-85
2023/10/29 08:40:03;;;;;;;10.30;2.53;;;21.60;78.60;;;;;;6220707;23;20008;-84
2023/10/29 08:42:30;;;;;;;6.95;1.85;;;21.70;78.70;;;;;;6219706;23;20332;-79
2023/10/29 08:44:59;;;;;;;8.88;2.72;;;21.80;78.60;;;;;;6246916;23;20322;-81
2023/10/29 08:47:26;;;;;;;10.07;2.45;;;21.80;78.40;;;;;;6245939;23;20008;-81
2023/10/29 08:49:52;;;;;;;7.10;1.90;;;21.90;78.40;;;;;;6246348;23;20005;-83
2023/10/29 08:52:18;;;;;;;11.02;2.78;;;21.90;78.40;;;;;;6246287;23;20327;-80
2023/10/29 08:54:44;;;;;;;8.77;2.10;;;22.00;77.90;;;;;;6247198;23;20000;-87
2023/10/29 08:57:10;;;;;;;6.80;2.00;;;22.00;77.80;;;;;;6247148;23;20000;-84
2023/10/29 08:59:36;;;;;;;15.18;2.85;;;22.10;77.70;;;;;;6253447;23;20064;-88
2023/10/29 09:02:02;;;;;;;8.38;1.58;;;22.10;77.70;;;;;;6249726;23;20054;-89
2023/10/29 09:04:28;;;;;;;8.68;1.88;;;22.10;77.70;;;;;;6247292;23;20068;-88
2023/10/29 09:06:53;;;;;;;8.00;1.70;;;22.20;77.40;;;;;;6247111;23;20035;-86
2023/10/29 09:09:19;;;;;;;11.48;2.35;;;22.30;77.30;;;;;;6247147;23;20004;-85
2023/10/29 09:11:46;;;;;;;8.13;2.47;;;22.30;76.90;;;;;;6249844;23;20066;-88
2023/10/29 09:14:13;;;;;;;7.57;2.17;;;22.40;76.90;;;;;;6248503;23;20004;-83
2023/10/29 09:16:39;;;;;;;9.52;1.83;;;22.40;76.90;;;;;;6247218;23;20084;-83
2023/10/29 09:19:05;;;;;;;11.82;2.58;;;22.50;76.80;;;;;;6247008;23;20008;-84
2023/10/29 09:21:31;;;;;;;10.10;2.35;;;22.60;76.90;;;;;;6246065;23;20050;-83
2023/10/29 09:23:56;;;;;;;7.40;2.40;;;22.60;76.70;;;;;;6219515;23;20009;-81
2023/10/29 09:26:22;;;;;;;8.93;2.20;;;22.60;76.50;;;;;;6248965;23;20064;-85
2023/10/29 09:28:48;;;;;;;8.57;2.13;;;22.70;76.20;;;;;;6250478;23;20028;-89
2023/10/29 09:31:17;;;;;;;6.10;1.75;;;22.80;76.00;;;;;;6247237;23;20031;-86
2023/10/29 09:33:44;;;;;;;13.70;2.25;;;22.80;75.60;;;;;;6247687;23;20378;-85
2023/10/29 09:36:10;;;;;;;8.98;1.77;;;22.90;75.40;;;;;;6247381;23;19996;-85
2023/10/29 09:38:35;;;;;;;9.45;2.00;;;22.90;74.90;;;;;;6261834;23;20019;-84
2023/10/29 09:41:02;;;;;;;6.68;1.77;;;22.90;74.40;;;;;;6250682;23;20001;-87
2023/10/29 09:43:36;;;;;;;26.63;3.80;;;23.00;74.30;;;;;;6222543;23;20008;-89
2023/10/29 09:46:05;;;;;;;17.13;3.13;;;23.00;73.70;;;;;;6251863;23;20008;-82
2023/10/29 09:48:33;;;;;;;9.30;2.13;;;23.10;73.00;;;;;;6245665;23;20362;-84
2023/10/29 09:51:00;;;;;;;9.82;1.80;;;23.10;73.10;;;;;;6246030;23;20004;-84
2023/10/29 09:53:28;;;;;;;7.80;1.65;;;23.20;72.60;;;;;;6247372;23;20000;-87
2023/10/29 09:55:54;;;;;;;6.47;1.88;;;23.20;71.90;;;;;;6247148;23;20001;-84
2023/10/29 09:58:23;;;;;;;7.60;1.80;;;23.20;71.60;;;;;;6247035;23;20000;-83
2023/10/29 10:00:49;;;;;;;7.65;2.08;;;23.30;71.70;;;;;;6246607;23;20004;-82
2023/10/29 10:03:16;;;;;;;8.68;1.88;;;23.30;71.10;;;;;;6248023;23;20065;-80
2023/10/29 10:05:42;;;;;;;5.65;1.63;;;23.40;70.90;;;;;;6247464;23;20019;-82
2023/10/29 10:08:09;;;;;;;13.48;2.28;;;23.50;70.10;;;;;;6247473;23;20035;-82
2023/10/29 10:10:43;;;;;;;7.43;1.98;;;23.50;69.50;;;;;;6219598;23;20103;-82
2023/10/29 10:13:10;;;;;;;9.32;2.42;;;23.60;69.70;;;;;;6247114;23;20292;-85
2023/10/29 10:15:36;;;;;;;9.00;2.25;;;23.60;69.90;;;;;;6246778;23;20010;-82
2023/10/29 10:18:04;;;;;;;5.78;1.58;;;23.60;69.80;;;;;;6246171;23;20370;-82
2023/10/29 10:20:30;;;;;;;9.35;2.20;;;23.70;69.80;;;;;;6246484;23;20434;-83
2023/10/29 10:23:03;;;;;;;13.00;2.70;;;23.80;70.40;;;;;;6219505;23;20023;-82
2023/10/29 10:25:30;;;;;;;5.78;1.83;;;23.90;70.00;;;;;;6219590;23;20016;-80
2023/10/29 10:27:57;;;;;;;9.57;2.22;;;24.00;68.90;;;;;;6248152;23;20000;-85
2023/10/29 10:30:34;;;;;;;18.10;2.53;;;24.00;69.60;;;;;;6246081;23;20000;-85
2023/10/29 10:33:20;;;;;;;28.88;4.18;;;24.00;68.30;;;;;;6246616;23;20000;-88
2023/10/29 10:35:51;;;;;;;16.40;2.67;;;24.00;68.70;;;;;;6248154;23;20071;-82
2023/10/29 10:38:22;;;;;;;13.23;2.70;;;24.00;69.90;;;;;;6247674;23;20001;-82
2023/10/29 10:40:59;;;;;;;11.75;2.60;;;24.00;70.00;;;;;;6245982;23;20434;-79
2023/10/29 10:43:26;;;;;;;8.93;1.92;;;24.10;69.90;;;;;;6245917;23;19996;-78
2023/10/29 10:45:54;;;;;;;8.23;1.80;;;24.10;68.90;;;;;;6245880;23;20079;-80
2023/10/29 10:48:20;;;;;;;9.60;2.17;;;24.30;69.10;;;;;;6245535;23;20007;-78
2023/10/29 10:50:47;;;;;;;7.43;2.28;;;24.50;67.70;;;;;;6245353;23;20423;-80
2023/10/29 10:53:16;;;;;;;9.88;2.25;;;24.50;68.30;;;;;;6245255;23;19996;-76
2023/10/29 10:55:43;;;;;;;15.85;3.13;;;24.60;68.20;;;;;;6245826;23;20014;-81
2023/10/29 10:58:12;;;;;;;9.80;2.08;;;24.50;68.20;;;;;;6245851;23;20001;-75
2023/10/29 11:00:38;;;;;;;16.17;3.67;;;24.40;68.10;;;;;;6245228;23;20047;-76
2023/10/29 11:03:05;;;;;;;15.70;3.83;;;24.50;67.90;;;;;;6245104;23;20008;-85
2023/10/29 11:05:33;;;;;;;13.70;3.35;;;24.50;68.20;;;;;;6252813;23;20008;-81
2023/10/29 11:07:59;;;;;;;12.02;3.13;;;24.60;68.00;;;;;;6252092;23;20000;-86
2023/10/29 11:10:26;;;;;;;9.50;2.50;;;24.70;68.10;;;;;;6245046;23;20024;-80
2023/10/29 11:12:51;;;;;;;6.45;2.25;;;24.80;67.50;;;;;;6245096;23;19996;-82
2023/10/29 11:15:22;;;;;;;10.20;2.20;;;24.80;67.00;;;;;;6244969;23;20034;-82
2023/10/29 11:18:02;;;;;;;10.10;2.47;;;24.80;67.00;;;;;;6218418;23;20000;-80
2023/10/29 11:20:36;;;;;;;7.93;2.42;;;24.70;67.30;;;;;;6244331;23;20114;-82
2023/10/29 11:23:09;;;;;;;6.78;1.80;;;24.50;66.50;;;;;;6245215;23;20000;-79
2023/10/29 11:25:38;;;;;;;10.67;2.53;;;24.50;66.10;;;;;;6244932;23;20040;-80
2023/10/29 11:28:04;;;;;;;8.63;1.92;;;24.60;65.70;;;;;;6243673;23;20231;-78
2023/10/29 11:30:29;;;;;;;6.45;1.67;;;24.70;66.30;;;;;;6244562;23;20441;-79
2023/10/29 11:33:10;;;;;;;9.80;2.55;;;24.70;65.80;;;;;;6245606;23;20008;-79
2023/10/29 11:35:36;;;;;;;7.80;2.05;;;24.80;64.60;;;;;;6244908;23;20007;-81
2023/10/29 11:38:35;;;;;;;11.15;2.28;;;24.90;64.80;;;;;;6244984;23;20114;-79
2023/10/29 11:41:36;;;;;;;6.10;2.00;;;25.00;64.50;;;;;;6244581;23;20012;-79
2023/10/29 11:44:24;;;;;;;10.07;2.15;;;25.30;64.50;;;;;;6245126;23;20074;-86
2023/10/29 11:47:00;;;;;;;8.45;1.85;;;25.40;63.70;;;;;;6245884;23;20505;-77
2023/10/29 11:49:27;;;;;;;6.93;1.50;;;25.40;63.10;;;;;;6243943;23;20087;-75
2023/10/29 11:51:54;;;;;;;7.82;1.65;;;25.40;62.80;;;;;;6244325;23;20398;-77
2023/10/29 11:54:20;;;;;;;8.45;2.05;;;25.40;62.50;;;;;;6244669;23;20069;-74
2023/10/29 11:56:48;;;;;;;7.65;1.88;;;25.30;62.70;;;;;;6244566;23;19996;-77
2023/10/29 11:59:13;;;;;;;10.68;2.47;;;25.30;62.80;;;;;;6244317;23;20307;-79
2023/10/29 12:01:41;;;;;;;8.63;1.73;;;25.20;63.00;;;;;;6244755;23;20035;-78
2023/10/29 12:04:09;;;;;;;10.77;1.88;;;25.30;63.40;;;;;;6244204;23;20000;-78
2023/10/29 12:06:54;;;;;;;7.28;1.50;;;25.30;62.80;;;;;;6244250;23;20311;-76
2023/10/29 12:09:22;;;;;;;7.65;1.75;;;25.40;61.80;;;;;;6243799;23;20004;-78
2023/10/29 12:11:52;;;;;;;6.97;2.10;;;25.30;61.70;;;;;;6244246;23;20020;-77
2023/10/29 12:14:43;;;;;;;9.80;2.22;;;25.30;62.00;;;;;;6242923;23;20457;-77
2023/10/29 12:17:10;;;;;;;11.88;2.00;;;25.30;61.10;;;;;;6244412;23;20326;-77
2023/10/29 12:19:44;;;;;;;7.20;2.10;;;25.30;61.40;;;;;;6241728;23;20004;-75
2023/10/29 12:22:20;;;;;;;7.00;1.90;;;25.30;61.60;;;;;;6240429;23;20094;-81
2023/10/29 12:24:54;;;;;;;9.32;2.03;;;25.30;61.50;;;;;;6240885;23;20027;-76
2023/10/29 12:27:22;;;;;;;5.32;1.70;;;25.40;61.50;;;;;;6240403;23;20027;-76
2023/10/29 12:29:49;;;;;;;8.18;1.90;;;25.40;61.50;;;;;;6245409;23;20354;-80
2023/10/29 12:32:17;;;;;;;14.40;2.30;;;25.30;61.60;;;;;;6249406;23;20023;-77
2023/10/29 12:34:56;;;;;;;7.72;1.88;;;25.30;61.80;;;;;;6245363;23;20047;-81
2023/10/29 12:37:27;;;;;;;9.88;2.10;;;25.30;61.80;;;;;;6244672;23;20030;-80
2023/10/29 12:39:59;;;;;;;7.95;2.10;;;25.10;61.90;;;;;;6245274;23;20498;-80
2023/10/29 12:42:52;;;;;;;5.85;2.08;;;25.10;62.20;;;;;;6245072;23;20438;-81
2023/10/29 12:45:25;;;;;;;8.02;1.98;;;25.10;62.20;;;;;;6244802;23;20126;-80
2023/10/29 12:48:11;;;;;;;7.85;1.75;;;25.10;62.10;;;;;;6244915;23;20000;-81
2023/10/29 12:50:51;;;;;;;8.95;1.83;;;25.00;62.20;;;;;;6244504;23;20031;-79